sensor_id;sensor_type;location;lat;lon;timestamp;temperature;humidity
10980;DHT22;5543;51.734;8.744;2023-05-09T00:00:11;15.00;99.90
10980;DHT22;5543;51.734;8.744;2023-05-09T00:02:40;15.00;99.90
10980;DHT22;5543;51.734;8.744;2023-05-09T00:05:13;15.00;99.90
10980;DHT22;5543;51.734;8.744;2023-05-09T00:07:42;14.90;99.90
10980;DHT22;5543;51.734;8.744;2023-05-09T00:10:10;14.90;99.90
10980;DHT22;5543;51.734;8.744;2023-05-09T00:12:38;14.80;99.90
10980;DHT22;5543;51.734;8.744;2023-05-09T00:15:08;14.70;99.90
10980;DHT22;5543;51.734;8.744;2023-05-09T00:17:36;14.60;99.90
10980;DHT22;5543;51.734;8.744;2023-05-09T00:20:07;14.50;99.90
10980;DHT22;5543;51.734;8.744;2023-05-09T00:22:40;14.40;99.90
10980;DHT22;5543;51.734;8.744;2023-05-09T00:25:09;14.30;99.90
10980;DHT22;5543;51.734;8.744;2023-05-09T00:27:38;14.20;99.90
10980;DHT22;5543;51.734;8.744;2023-05-09T00:30:07;14.20;99.90
10980;DHT22;5543;51.734;8.744;2023-05-09T00:32:36;14.10;99.90
10980;DHT22;5543;51.734;8.744;2023-05-09T00:35:07;14.00;99.90
10980;DHT22;5543;51.734;8.744;2023-05-09T00:37:35;14.00;99.90
10980;DHT22;5543;51.734;8.744;2023-05-09T00:40:06;13.90;99.90
10980;DHT22;5543;51.734;8.744;2023-05-09T00:42:35;13.90;99.90
10980;DHT22;5543;51.734;8.744;2023-05-09T00:45:04;13.80;99.90
10980;DHT22;5543;51.734;8.744;2023-05-09T00:47:33;13.70;99.90
10980;DHT22;5543;51.734;8.744;2023-05-09T00:50:02;13.70;99.90
10980;DHT22;5543;51.734;8.744;2023-05-09T00:52:32;13.60;99.90
10980;DHT22;5543;51.734;8.744;2023-05-09T00:55:01;13.60;99.90
10980;DHT22;5543;51.734;8.744;2023-05-09T00:57:31;13.60;99.90
10980;DHT22;5543;51.734;8.744;2023-05-09T00:59:59;13.50;99.90
10980;DHT22;5543;51.734;8.744;2023-05-09T01:02:30;13.60;99.90
10980;DHT22;5543;51.734;8.744;2023-05-09T01:04:58;13.60;99.90
10980;DHT22;5543;51.734;8.744;2023-05-09T01:07:32;13.60;99.90
10980;DHT22;5543;51.734;8.744;2023-05-09T01:10:07;13.60;99.90
10980;DHT22;5543;51.734;8.744;2023-05-09T01:12:42;13.50;99.90
10980;DHT22;5543;51.734;8.744;2023-05-09T01:15:28;13.50;99.90
10980;DHT22;5543;51.734;8.744;2023-05-09T01:18:02;13.40;99.90
10980;DHT22;5543;51.734;8.744;2023-05-09T01:20:36;13.40;99.90
10980;DHT22;5543;51.734;8.744;2023-05-09T01:23:22;13.30;99.90
10980;DHT22;5543;51.734;8.744;2023-05-09T01:26:01;13.30;99.90
10980;DHT22;5543;51.734;8.744;2023-05-09T01:28:55;13.30;99.90
10980;DHT22;5543;51.734;8.744;2023-05-09T01:31:30;13.20;99.90
10980;DHT22;5543;51.734;8.744;2023-05-09T01:34:01;13.40;99.90
10980;DHT22;5543;51.734;8.744;2023-05-09T01:36:32;13.10;99.90
10980;DHT22;5543;51.734;8.744;2023-05-09T01:39:03;13.10;99.90
10980;DHT22;5543;51.734;8.744;2023-05-09T01:41:35;13.10;99.90
10980;DHT22;5543;51.734;8.744;2023-05-09T01:44:07;13.00;99.90
10980;DHT22;5543;51.734;8.744;2023-05-09T01:46:38;13.00;99.90
10980;DHT22;5543;51.734;8.744;2023-05-09T01:49:07;13.00;99.90
10980;DHT22;5543;51.734;8.744;2023-05-09T01:51:36;13.00;99.90
10980;DHT22;5543;51.734;8.744;2023-05-09T01:54:09;12.90;99.90
10980;DHT22;5543;51.734;8.744;2023-05-09T01:56:40;12.90;99.90
10980;DHT22;5543;51.734;8.744;2023-05-09T01:59:10;13.00;99.90
10980;DHT22;5543;51.734;8.744;2023-05-09T02:01:43;12.90;99.90
10980;DHT22;5543;51.734;8.744;2023-05-09T02:04:13;12.90;99.90
10980;DHT22;5543;51.734;8.744;2023-05-09T02:06:43;12.90;99.90
10980;DHT22;5543;51.734;8.744;2023-05-09T02:09:12;12.90;99.90
10980;DHT22;5543;51.734;8.744;2023-05-09T02:11:40;12.90;99.90
10980;DHT22;5543;51.734;8.744;2023-05-09T02:14:08;12.80;99.90
10980;DHT22;5543;51.734;8.744;2023-05-09T02:16:37;12.80;99.90
10980;DHT22;5543;51.734;8.744;2023-05-09T02:19:07;12.70;99.90
10980;DHT22;5543;51.734;8.744;2023-05-09T02:21:35;13.10;99.90
10980;DHT22;5543;51.734;8.744;2023-05-09T02:24:04;12.70;99.90
10980;DHT22;5543;51.734;8.744;2023-05-09T02:26:33;12.60;99.90
10980;DHT22;5543;51.734;8.744;2023-05-09T02:29:02;12.60;99.90
10980;DHT22;5543;51.734;8.744;2023-05-09T02:31:32;12.80;99.90
10980;DHT22;5543;51.734;8.744;2023-05-09T02:34:02;12.50;99.90
10980;DHT22;5543;51.734;8.744;2023-05-09T02:36:33;12.50;99.90
10980;DHT22;5543;51.734;8.744;2023-05-09T02:39:02;12.90;99.90
10980;DHT22;5543;51.734;8.744;2023-05-09T02:41:30;12.40;99.90
10980;DHT22;5543;51.734;8.744;2023-05-09T02:43:58;12.70;99.90
10980;DHT22;5543;51.734;8.744;2023-05-09T02:46:26;12.30;99.90
10980;DHT22;5543;51.734;8.744;2023-05-09T02:48:55;12.40;99.90
10980;DHT22;5543;51.734;8.744;2023-05-09T02:51:23;12.30;99.90
10980;DHT22;5543;51.734;8.744;2023-05-09T02:53:52;12.20;99.90
10980;DHT22;5543;51.734;8.744;2023-05-09T02:56:21;12.20;99.90
10980;DHT22;5543;51.734;8.744;2023-05-09T02:58:49;12.20;99.90
10980;DHT22;5543;51.734;8.744;2023-05-09T03:01:17;12.20;99.90
10980;DHT22;5543;51.734;8.744;2023-05-09T03:03:45;12.10;99.90
10980;DHT22;5543;51.734;8.744;2023-05-09T03:06:14;12.10;99.90
10980;DHT22;5543;51.734;8.744;2023-05-09T03:08:42;12.10;99.90
10980;DHT22;5543;51.734;8.744;2023-05-09T03:11:11;12.10;99.90
10980;DHT22;5543;51.734;8.744;2023-05-09T03:13:39;12.10;99.90
10980;DHT22;5543;51.734;8.744;2023-05-09T03:16:07;12.10;99.90
10980;DHT22;5543;51.734;8.744;2023-05-09T03:18:36;12.10;99.90
10980;DHT22;5543;51.734;8.744;2023-05-09T03:21:04;12.20;99.90
10980;DHT22;5543;51.734;8.744;2023-05-09T03:23:32;12.20;99.90
10980;DHT22;5543;51.734;8.744;2023-05-09T03:26:00;12.20;99.90
10980;DHT22;5543;51.734;8.744;2023-05-09T03:28:29;12.80;99.90
10980;DHT22;5543;51.734;8.744;2023-05-09T03:33:26;12.20;99.90
10980;DHT22;5543;51.734;8.744;2023-05-09T03:35:54;12.20;99.90
10980;DHT22;5543;51.734;8.744;2023-05-09T03:38:22;12.20;99.90
10980;DHT22;5543;51.734;8.744;2023-05-09T03:40:51;12.20;99.90
10980;DHT22;5543;51.734;8.744;2023-05-09T03:43:20;12.20;99.90
10980;DHT22;5543;51.734;8.744;2023-05-09T03:45:49;12.20;99.90
10980;DHT22;5543;51.734;8.744;2023-05-09T03:48:17;12.20;99.90
10980;DHT22;5543;51.734;8.744;2023-05-09T03:50:45;12.20;99.90
10980;DHT22;5543;51.734;8.744;2023-05-09T03:53:13;12.20;99.90
10980;DHT22;5543;51.734;8.744;2023-05-09T03:55:42;12.20;99.90
10980;DHT22;5543;51.734;8.744;2023-05-09T03:58:10;12.10;99.90
10980;DHT22;5543;51.734;8.744;2023-05-09T04:00:40;12.30;99.90
10980;DHT22;5543;51.734;8.744;2023-05-09T04:03:09;12.40;99.90
10980;DHT22;5543;51.734;8.744;2023-05-09T04:05:38;12.50;99.90
10980;DHT22;5543;51.734;8.744;2023-05-09T04:08:06;12.60;99.90
10980;DHT22;5543;51.734;8.744;2023-05-09T04:10:34;12.60;99.90
10980;DHT22;5543;51.734;8.744;2023-05-09T04:13:02;12.70;99.90
10980;DHT22;5543;51.734;8.744;2023-05-09T04:15:31;12.90;99.90
10980;DHT22;5543;51.734;8.744;2023-05-09T04:17:59;13.00;99.90
10980;DHT22;5543;51.734;8.744;2023-05-09T04:20:28;13.00;99.90
10980;DHT22;5543;51.734;8.744;2023-05-09T04:22:56;13.10;99.90
10980;DHT22;5543;51.734;8.744;2023-05-09T04:25:25;13.20;99.90
10980;DHT22;5543;51.734;8.744;2023-05-09T04:27:53;13.30;99.90
10980;DHT22;5543;51.734;8.744;2023-05-09T04:30:21;13.40;99.90
10980;DHT22;5543;51.734;8.744;2023-05-09T04:32:49;13.50;99.90
10980;DHT22;5543;51.734;8.744;2023-05-09T04:35:19;13.60;99.90
10980;DHT22;5543;51.734;8.744;2023-05-09T04:37:49;13.70;99.90
10980;DHT22;5543;51.734;8.744;2023-05-09T04:40:18;14.00;99.90
10980;DHT22;5543;51.734;8.744;2023-05-09T04:42:46;14.00;99.90
10980;DHT22;5543;51.734;8.744;2023-05-09T04:45:14;14.00;99.90
10980;DHT22;5543;51.734;8.744;2023-05-09T04:47:43;14.00;99.90
10980;DHT22;5543;51.734;8.744;2023-05-09T04:50:11;14.10;99.90
10980;DHT22;5543;51.734;8.744;2023-05-09T04:52:39;14.10;99.90
10980;DHT22;5543;51.734;8.744;2023-05-09T04:55:09;14.20;99.90
10980;DHT22;5543;51.734;8.744;2023-05-09T04:57:37;14.20;99.90
10980;DHT22;5543;51.734;8.744;2023-05-09T05:00:06;14.20;99.90
10980;DHT22;5543;51.734;8.744;2023-05-09T05:02:37;14.20;99.90
10980;DHT22;5543;51.734;8.744;2023-05-09T05:05:06;14.30;99.90
10980;DHT22;5543;51.734;8.744;2023-05-09T05:07:43;14.30;99.90
10980;DHT22;5543;51.734;8.744;2023-05-09T05:10:13;14.40;99.90
10980;DHT22;5543;51.734;8.744;2023-05-09T05:12:41;14.50;99.90
10980;DHT22;5543;51.734;8.744;2023-05-09T05:15:09;14.60;99.90
10980;DHT22;5543;51.734;8.744;2023-05-09T05:17:38;14.70;99.90
10980;DHT22;5543;51.734;8.744;2023-05-09T05:20:07;14.80;99.90
10980;DHT22;5543;51.734;8.744;2023-05-09T05:22:36;14.80;99.90
10980;DHT22;5543;51.734;8.744;2023-05-09T05:25:05;14.90;99.90
10980;DHT22;5543;51.734;8.744;2023-05-09T05:27:35;14.90;99.90
10980;DHT22;5543;51.734;8.744;2023-05-09T05:30:03;15.00;99.90
10980;DHT22;5543;51.734;8.744;2023-05-09T05:32:33;15.00;99.90
10980;DHT22;5543;51.734;8.744;2023-05-09T05:35:01;15.00;99.90
10980;DHT22;5543;51.734;8.744;2023-05-09T05:37:30;15.00;99.90
10980;DHT22;5543;51.734;8.744;2023-05-09T05:39:58;15.00;99.90
10980;DHT22;5543;51.734;8.744;2023-05-09T05:42:26;15.10;99.90
10980;DHT22;5543;51.734;8.744;2023-05-09T05:44:56;15.10;99.90
10980;DHT22;5543;51.734;8.744;2023-05-09T05:47:30;15.10;99.90
10980;DHT22;5543;51.734;8.744;2023-05-09T05:49:59;15.20;99.90
10980;DHT22;5543;51.734;8.744;2023-05-09T05:52:27;15.30;99.90
10980;DHT22;5543;51.734;8.744;2023-05-09T05:54:55;15.40;99.90
10980;DHT22;5543;51.734;8.744;2023-05-09T05:57:23;15.50;99.90
10980;DHT22;5543;51.734;8.744;2023-05-09T05:59:51;15.50;99.90
10980;DHT22;5543;51.734;8.744;2023-05-09T06:02:21;15.70;99.90
10980;DHT22;5543;51.734;8.744;2023-05-09T06:04:49;15.80;99.90
10980;DHT22;5543;51.734;8.744;2023-05-09T06:07:21;16.10;99.90
10980;DHT22;5543;51.734;8.744;2023-05-09T06:09:49;16.20;99.90
10980;DHT22;5543;51.734;8.744;2023-05-09T06:12:19;16.40;99.90
10980;DHT22;5543;51.734;8.744;2023-05-09T06:14:47;16.40;99.90
10980;DHT22;5543;51.734;8.744;2023-05-09T06:17:15;16.40;99.90
10980;DHT22;5543;51.734;8.744;2023-05-09T06:19:45;16.50;99.90
10980;DHT22;5543;51.734;8.744;2023-05-09T06:22:13;16.50;99.90
10980;DHT22;5543;51.734;8.744;2023-05-09T06:24:41;16.60;99.90
10980;DHT22;5543;51.734;8.744;2023-05-09T06:27:09;16.60;99.90
10980;DHT22;5543;51.734;8.744;2023-05-09T06:29:38;16.70;99.90
10980;DHT22;5543;51.734;8.744;2023-05-09T06:32:06;16.80;99.90
10980;DHT22;5543;51.734;8.744;2023-05-09T06:34:34;16.90;99.90
10980;DHT22;5543;51.734;8.744;2023-05-09T06:37:03;17.00;99.90
10980;DHT22;5543;51.734;8.744;2023-05-09T06:39:32;17.10;99.90
10980;DHT22;5543;51.734;8.744;2023-05-09T06:42:01;17.30;99.90
10980;DHT22;5543;51.734;8.744;2023-05-09T06:44:29;17.30;99.90
10980;DHT22;5543;51.734;8.744;2023-05-09T06:46:58;17.30;99.90
10980;DHT22;5543;51.734;8.744;2023-05-09T06:49:27;17.30;99.90
10980;DHT22;5543;51.734;8.744;2023-05-09T06:51:55;17.30;99.90
10980;DHT22;5543;51.734;8.744;2023-05-09T06:54:25;17.30;99.90
10980;DHT22;5543;51.734;8.744;2023-05-09T06:56:53;17.30;99.90
10980;DHT22;5543;51.734;8.744;2023-05-09T06:59:21;17.40;99.90
10980;DHT22;5543;51.734;8.744;2023-05-09T07:01:49;17.50;99.90
10980;DHT22;5543;51.734;8.744;2023-05-09T07:04:17;17.60;99.90
10980;DHT22;5543;51.734;8.744;2023-05-09T07:06:46;17.60;99.90
10980;DHT22;5543;51.734;8.744;2023-05-09T07:09:14;17.60;99.90
10980;DHT22;5543;51.734;8.744;2023-05-09T07:11:47;17.60;99.90
10980;DHT22;5543;51.734;8.744;2023-05-09T07:14:15;17.80;99.90
10980;DHT22;5543;51.734;8.744;2023-05-09T07:16:44;18.00;99.90
10980;DHT22;5543;51.734;8.744;2023-05-09T07:19:12;18.20;99.90
10980;DHT22;5543;51.734;8.744;2023-05-09T07:21:41;18.40;99.90
10980;DHT22;5543;51.734;8.744;2023-05-09T07:24:09;18.50;99.90
10980;DHT22;5543;51.734;8.744;2023-05-09T07:26:37;18.70;99.90
10980;DHT22;5543;51.734;8.744;2023-05-09T07:29:07;18.70;99.90
10980;DHT22;5543;51.734;8.744;2023-05-09T07:31:35;18.70;99.90
10980;DHT22;5543;51.734;8.744;2023-05-09T07:34:03;18.80;99.90
10980;DHT22;5543;51.734;8.744;2023-05-09T07:36:31;18.80;99.90
10980;DHT22;5543;51.734;8.744;2023-05-09T07:39:01;19.00;99.90
10980;DHT22;5543;51.734;8.744;2023-05-09T07:41:30;19.10;99.90
10980;DHT22;5543;51.734;8.744;2023-05-09T07:43:58;19.10;99.90
10980;DHT22;5543;51.734;8.744;2023-05-09T07:46:28;18.90;99.90
10980;DHT22;5543;51.734;8.744;2023-05-09T07:48:56;18.70;99.90
10980;DHT22;5543;51.734;8.744;2023-05-09T07:51:24;18.60;99.90
10980;DHT22;5543;51.734;8.744;2023-05-09T07:53:52;18.60;99.90
10980;DHT22;5543;51.734;8.744;2023-05-09T07:56:22;18.50;99.90
10980;DHT22;5543;51.734;8.744;2023-05-09T07:58:51;18.30;99.90
10980;DHT22;5543;51.734;8.744;2023-05-09T08:01:21;18.20;99.90
10980;DHT22;5543;51.734;8.744;2023-05-09T08:03:51;18.20;99.90
10980;DHT22;5543;51.734;8.744;2023-05-09T08:06:19;18.20;99.90
10980;DHT22;5543;51.734;8.744;2023-05-09T08:08:47;18.20;99.90
10980;DHT22;5543;51.734;8.744;2023-05-09T08:11:15;18.20;99.90
10980;DHT22;5543;51.734;8.744;2023-05-09T08:13:43;18.20;99.90
10980;DHT22;5543;51.734;8.744;2023-05-09T08:16:11;18.20;99.90
10980;DHT22;5543;51.734;8.744;2023-05-09T08:18:40;18.20;99.90
10980;DHT22;5543;51.734;8.744;2023-05-09T08:21:09;18.20;99.90
10980;DHT22;5543;51.734;8.744;2023-05-09T08:23:38;18.10;99.90
10980;DHT22;5543;51.734;8.744;2023-05-09T08:26:06;18.10;99.90
10980;DHT22;5543;51.734;8.744;2023-05-09T08:28:34;18.10;99.90
10980;DHT22;5543;51.734;8.744;2023-05-09T08:31:02;18.10;99.90
10980;DHT22;5543;51.734;8.744;2023-05-09T08:33:31;18.00;99.90
10980;DHT22;5543;51.734;8.744;2023-05-09T08:35:59;18.10;99.90
10980;DHT22;5543;51.734;8.744;2023-05-09T08:38:28;18.10;99.90
10980;DHT22;5543;51.734;8.744;2023-05-09T08:40:59;18.10;99.90
10980;DHT22;5543;51.734;8.744;2023-05-09T08:43:28;18.20;99.90
10980;DHT22;5543;51.734;8.744;2023-05-09T08:45:58;18.20;99.90
10980;DHT22;5543;51.734;8.744;2023-05-09T08:48:28;18.30;99.90
10980;DHT22;5543;51.734;8.744;2023-05-09T08:50:57;18.40;99.90
10980;DHT22;5543;51.734;8.744;2023-05-09T08:53:25;18.50;99.90
10980;DHT22;5543;51.734;8.744;2023-05-09T08:55:55;18.50;99.90
10980;DHT22;5543;51.734;8.744;2023-05-09T08:58:25;18.70;99.90
10980;DHT22;5543;51.734;8.744;2023-05-09T09:00:54;18.80;99.90
10980;DHT22;5543;51.734;8.744;2023-05-09T09:03:23;18.90;99.90
10980;DHT22;5543;51.734;8.744;2023-05-09T09:05:53;19.10;99.90
10980;DHT22;5543;51.734;8.744;2023-05-09T09:08:22;19.30;99.90
10980;DHT22;5543;51.734;8.744;2023-05-09T09:10:52;19.40;99.90
10980;DHT22;5543;51.734;8.744;2023-05-09T09:13:22;19.60;99.90
10980;DHT22;5543;51.734;8.744;2023-05-09T09:15:52;20.10;99.90
10980;DHT22;5543;51.734;8.744;2023-05-09T09:18:23;20.60;99.90
10980;DHT22;5543;51.734;8.744;2023-05-09T09:20:57;20.90;99.90
10980;DHT22;5543;51.734;8.744;2023-05-09T09:23:28;20.90;99.90
10980;DHT22;5543;51.734;8.744;2023-05-09T09:25:57;21.00;99.90
10980;DHT22;5543;51.734;8.744;2023-05-09T09:28:27;21.00;99.90
10980;DHT22;5543;51.734;8.744;2023-05-09T09:31:18;21.00;99.70
10980;DHT22;5543;51.734;8.744;2023-05-09T09:33:47;21.00;99.90
10980;DHT22;5543;51.734;8.744;2023-05-09T09:36:15;20.90;99.90
10980;DHT22;5543;51.734;8.744;2023-05-09T09:38:44;20.80;99.90
10980;DHT22;5543;51.734;8.744;2023-05-09T09:41:13;20.60;99.90
10980;DHT22;5543;51.734;8.744;2023-05-09T09:43:44;20.60;99.90
10980;DHT22;5543;51.734;8.744;2023-05-09T09:46:14;20.60;99.90
10980;DHT22;5543;51.734;8.744;2023-05-09T09:48:45;20.50;99.90
10980;DHT22;5543;51.734;8.744;2023-05-09T09:51:18;20.50;99.90
10980;DHT22;5543;51.734;8.744;2023-05-09T09:53:47;20.50;99.60
10980;DHT22;5543;51.734;8.744;2023-05-09T09:56:15;20.50;99.90
10980;DHT22;5543;51.734;8.744;2023-05-09T09:58:43;20.50;99.40
10980;DHT22;5543;51.734;8.744;2023-05-09T10:01:13;20.40;99.90
10980;DHT22;5543;51.734;8.744;2023-05-09T10:03:45;20.50;99.90
10980;DHT22;5543;51.734;8.744;2023-05-09T10:06:15;20.60;99.90
10980;DHT22;5543;51.734;8.744;2023-05-09T10:08:44;20.60;99.50
10980;DHT22;5543;51.734;8.744;2023-05-09T10:11:14;20.70;99.80
10980;DHT22;5543;51.734;8.744;2023-05-09T10:13:43;20.70;99.60
10980;DHT22;5543;51.734;8.744;2023-05-09T10:16:14;20.90;99.90
10980;DHT22;5543;51.734;8.744;2023-05-09T10:18:43;20.90;99.10
10980;DHT22;5543;51.734;8.744;2023-05-09T10:21:14;21.00;99.50
10980;DHT22;5543;51.734;8.744;2023-05-09T10:23:45;21.10;99.10
10980;DHT22;5543;51.734;8.744;2023-05-09T10:26:16;21.20;99.70
10980;DHT22;5543;51.734;8.744;2023-05-09T10:28:47;21.60;99.60
10980;DHT22;5543;51.734;8.744;2023-05-09T10:31:22;22.10;98.40
10980;DHT22;5543;51.734;8.744;2023-05-09T10:33:53;22.30;97.80
10980;DHT22;5543;51.734;8.744;2023-05-09T10:36:22;22.20;98.80
10980;DHT22;5543;51.734;8.744;2023-05-09T10:38:53;22.20;97.50
10980;DHT22;5543;51.734;8.744;2023-05-09T10:41:22;22.20;97.10
10980;DHT22;5543;51.734;8.744;2023-05-09T10:43:51;22.60;98.00
10980;DHT22;5543;51.734;8.744;2023-05-09T10:46:24;22.80;97.00
10980;DHT22;5543;51.734;8.744;2023-05-09T10:48:53;23.00;97.00
10980;DHT22;5543;51.734;8.744;2023-05-09T10:51:23;23.50;96.30
10980;DHT22;5543;51.734;8.744;2023-05-09T10:53:51;23.70;95.70
10980;DHT22;5543;51.734;8.744;2023-05-09T10:56:23;23.60;95.80
10980;DHT22;5543;51.734;8.744;2023-05-09T10:58:52;23.50;95.70
10980;DHT22;5543;51.734;8.744;2023-05-09T11:01:32;23.30;95.50
10980;DHT22;5543;51.734;8.744;2023-05-09T11:04:09;23.20;96.20
10980;DHT22;5543;51.734;8.744;2023-05-09T11:06:43;23.00;96.30
10980;DHT22;5543;51.734;8.744;2023-05-09T11:09:23;22.60;95.50
10980;DHT22;5543;51.734;8.744;2023-05-09T11:11:54;22.40;96.00
10980;DHT22;5543;51.734;8.744;2023-05-09T11:14:36;22.30;96.60
10980;DHT22;5543;51.734;8.744;2023-05-09T11:17:07;22.10;96.40
10980;DHT22;5543;51.734;8.744;2023-05-09T11:19:39;22.10;97.00
10980;DHT22;5543;51.734;8.744;2023-05-09T11:22:24;22.10;96.90
10980;DHT22;5543;51.734;8.744;2023-05-09T11:24:59;22.00;96.30
10980;DHT22;5543;51.734;8.744;2023-05-09T11:27:36;22.10;97.70
10980;DHT22;5543;51.734;8.744;2023-05-09T11:30:06;22.20;96.80
10980;DHT22;5543;51.734;8.744;2023-05-09T11:32:43;22.60;97.70
10980;DHT22;5543;51.734;8.744;2023-05-09T11:35:12;22.90;96.70
10980;DHT22;5543;51.734;8.744;2023-05-09T11:37:46;23.60;95.30
10980;DHT22;5543;51.734;8.744;2023-05-09T11:40:16;23.50;94.60
10980;DHT22;5543;51.734;8.744;2023-05-09T11:42:47;23.50;95.70
10980;DHT22;5543;51.734;8.744;2023-05-09T11:45:16;23.60;95.60
10980;DHT22;5543;51.734;8.744;2023-05-09T11:47:46;23.30;95.40
10980;DHT22;5543;51.734;8.744;2023-05-09T11:50:16;23.20;95.50
10980;DHT22;5543;51.734;8.744;2023-05-09T11:52:45;23.20;95.80
10980;DHT22;5543;51.734;8.744;2023-05-09T11:55:15;23.50;96.10
10980;DHT22;5543;51.734;8.744;2023-05-09T11:57:44;23.90;95.70
10980;DHT22;5543;51.734;8.744;2023-05-09T12:00:15;24.30;95.80
10980;DHT22;5543;51.734;8.744;2023-05-09T12:02:44;24.50;93.90
10980;DHT22;5543;51.734;8.744;2023-05-09T12:05:15;24.80;93.80
10980;DHT22;5543;51.734;8.744;2023-05-09T12:07:45;24.90;94.40
10980;DHT22;5543;51.734;8.744;2023-05-09T12:10:15;24.90;93.80
10980;DHT22;5543;51.734;8.744;2023-05-09T12:12:44;24.60;92.90
10980;DHT22;5543;51.734;8.744;2023-05-09T12:15:13;24.20;94.00
10980;DHT22;5543;51.734;8.744;2023-05-09T12:17:44;24.00;93.60
10980;DHT22;5543;51.734;8.744;2023-05-09T12:20:16;23.70;93.60
10980;DHT22;5543;51.734;8.744;2023-05-09T12:22:52;23.50;93.50
10980;DHT22;5543;51.734;8.744;2023-05-09T12:25:21;23.60;94.00
10980;DHT22;5543;51.734;8.744;2023-05-09T12:27:49;23.70;93.50
10980;DHT22;5543;51.734;8.744;2023-05-09T12:30:20;23.70;94.00
10980;DHT22;5543;51.734;8.744;2023-05-09T12:32:48;23.60;93.90
10980;DHT22;5543;51.734;8.744;2023-05-09T12:35:20;23.40;93.90
10980;DHT22;5543;51.734;8.744;2023-05-09T12:37:56;23.20;94.30
10980;DHT22;5543;51.734;8.744;2023-05-09T12:40:25;23.10;94.80
10980;DHT22;5543;51.734;8.744;2023-05-09T12:42:56;23.30;94.70
10980;DHT22;5543;51.734;8.744;2023-05-09T12:45:26;24.00;93.60
10980;DHT22;5543;51.734;8.744;2023-05-09T12:47:56;24.50;93.80
10980;DHT22;5543;51.734;8.744;2023-05-09T12:50:32;25.00;92.60
10980;DHT22;5543;51.734;8.744;2023-05-09T12:53:02;25.90;91.20
10980;DHT22;5543;51.734;8.744;2023-05-09T12:55:38;26.90;91.30
10980;DHT22;5543;51.734;8.744;2023-05-09T12:58:07;27.90;90.10
10980;DHT22;5543;51.734;8.744;2023-05-09T13:00:41;27.70;86.00
10980;DHT22;5543;51.734;8.744;2023-05-09T13:03:23;26.60;88.60
10980;DHT22;5543;51.734;8.744;2023-05-09T13:05:57;25.50;89.70
10980;DHT22;5543;51.734;8.744;2023-05-09T13:08:26;24.60;91.10
10980;DHT22;5543;51.734;8.744;2023-05-09T13:10:54;24.10;91.20
10980;DHT22;5543;51.734;8.744;2023-05-09T13:13:41;23.80;92.30
10980;DHT22;5543;51.734;8.744;2023-05-09T13:16:09;24.00;91.70
10980;DHT22;5543;51.734;8.744;2023-05-09T13:18:41;24.20;91.70
10980;DHT22;5543;51.734;8.744;2023-05-09T13:21:11;24.30;91.10
10980;DHT22;5543;51.734;8.744;2023-05-09T13:23:39;23.80;91.20
10980;DHT22;5543;51.734;8.744;2023-05-09T13:26:10;23.30;91.90
10980;DHT22;5543;51.734;8.744;2023-05-09T13:28:39;23.00;92.70
10980;DHT22;5543;51.734;8.744;2023-05-09T13:31:07;22.70;93.00
10980;DHT22;5543;51.734;8.744;2023-05-09T13:33:35;22.60;93.00
10980;DHT22;5543;51.734;8.744;2023-05-09T13:36:04;22.40;93.00
10980;DHT22;5543;51.734;8.744;2023-05-09T13:38:34;22.40;92.80
10980;DHT22;5543;51.734;8.744;2023-05-09T13:41:06;22.30;93.10
10980;DHT22;5543;51.734;8.744;2023-05-09T13:43:35;22.30;93.40
10980;DHT22;5543;51.734;8.744;2023-05-09T13:46:03;22.40;93.30
10980;DHT22;5543;51.734;8.744;2023-05-09T13:48:31;22.40;93.70
10980;DHT22;5543;51.734;8.744;2023-05-09T13:50:59;22.50;93.50
10980;DHT22;5543;51.734;8.744;2023-05-09T13:53:28;22.60;93.50
10980;DHT22;5543;51.734;8.744;2023-05-09T13:55:57;22.70;93.30
10980;DHT22;5543;51.734;8.744;2023-05-09T13:58:25;22.80;93.40
10980;DHT22;5543;51.734;8.744;2023-05-09T14:00:54;22.70;92.90
10980;DHT22;5543;51.734;8.744;2023-05-09T14:03:22;22.80;93.60
10980;DHT22;5543;51.734;8.744;2023-05-09T14:05:50;23.10;93.70
10980;DHT22;5543;51.734;8.744;2023-05-09T14:08:19;23.40;93.20
10980;DHT22;5543;51.734;8.744;2023-05-09T14:10:47;23.70;92.30
10980;DHT22;5543;51.734;8.744;2023-05-09T14:13:17;24.20;92.40
10980;DHT22;5543;51.734;8.744;2023-05-09T14:15:45;24.40;91.90
10980;DHT22;5543;51.734;8.744;2023-05-09T14:18:14;24.70;90.90
10980;DHT22;5543;51.734;8.744;2023-05-09T14:20:46;24.50;91.00
10980;DHT22;5543;51.734;8.744;2023-05-09T14:23:14;24.00;90.90
10980;DHT22;5543;51.734;8.744;2023-05-09T14:25:42;23.70;92.00
10980;DHT22;5543;51.734;8.744;2023-05-09T14:28:11;23.60;91.40
10980;DHT22;5543;51.734;8.744;2023-05-09T14:30:40;23.50;92.00
10980;DHT22;5543;51.734;8.744;2023-05-09T14:33:08;23.40;91.90
10980;DHT22;5543;51.734;8.744;2023-05-09T14:35:36;23.20;91.60
10980;DHT22;5543;51.734;8.744;2023-05-09T14:38:07;22.90;92.10
10980;DHT22;5543;51.734;8.744;2023-05-09T14:40:35;22.70;92.70
10980;DHT22;5543;51.734;8.744;2023-05-09T14:43:03;22.60;92.50
10980;DHT22;5543;51.734;8.744;2023-05-09T14:45:32;22.40;93.40
10980;DHT22;5543;51.734;8.744;2023-05-09T14:48:02;22.30;93.00
10980;DHT22;5543;51.734;8.744;2023-05-09T14:50:30;22.30;93.00
10980;DHT22;5543;51.734;8.744;2023-05-09T14:52:59;22.30;93.00
10980;DHT22;5543;51.734;8.744;2023-05-09T14:55:27;22.30;93.30
10980;DHT22;5543;51.734;8.744;2023-05-09T14:57:57;22.40;92.90
10980;DHT22;5543;51.734;8.744;2023-05-09T15:00:25;22.40;92.90
10980;DHT22;5543;51.734;8.744;2023-05-09T15:02:54;22.40;92.70
10980;DHT22;5543;51.734;8.744;2023-05-09T15:05:24;22.50;93.40
10980;DHT22;5543;51.734;8.744;2023-05-09T15:07:52;22.60;94.00
10980;DHT22;5543;51.734;8.744;2023-05-09T15:10:20;22.60;92.60
10980;DHT22;5543;51.734;8.744;2023-05-09T15:12:49;22.50;93.40
10980;DHT22;5543;51.734;8.744;2023-05-09T15:15:18;22.40;93.10
10980;DHT22;5543;51.734;8.744;2023-05-09T15:17:49;22.30;92.80
10980;DHT22;5543;51.734;8.744;2023-05-09T15:20:17;22.10;93.60
10980;DHT22;5543;51.734;8.744;2023-05-09T15:22:48;21.90;93.40
10980;DHT22;5543;51.734;8.744;2023-05-09T15:25:17;21.80;94.20
10980;DHT22;5543;51.734;8.744;2023-05-09T15:27:45;21.60;93.90
10980;DHT22;5543;51.734;8.744;2023-05-09T15:30:16;21.60;93.60
10980;DHT22;5543;51.734;8.744;2023-05-09T15:32:44;21.50;93.40
10980;DHT22;5543;51.734;8.744;2023-05-09T15:35:12;21.40;93.80
10980;DHT22;5543;51.734;8.744;2023-05-09T15:37:41;21.30;93.70
10980;DHT22;5543;51.734;8.744;2023-05-09T15:40:11;21.20;93.80
10980;DHT22;5543;51.734;8.744;2023-05-09T15:42:40;21.20;94.60
10980;DHT22;5543;51.734;8.744;2023-05-09T15:45:08;21.10;94.00
10980;DHT22;5543;51.734;8.744;2023-05-09T15:47:36;21.10;94.50
10980;DHT22;5543;51.734;8.744;2023-05-09T15:50:05;21.00;94.20
10980;DHT22;5543;51.734;8.744;2023-05-09T15:52:34;21.00;94.80
10980;DHT22;5543;51.734;8.744;2023-05-09T15:55:02;21.00;94.60
10980;DHT22;5543;51.734;8.744;2023-05-09T15:57:32;21.10;95.00
10980;DHT22;5543;51.734;8.744;2023-05-09T16:00:00;21.10;94.50
10980;DHT22;5543;51.734;8.744;2023-05-09T16:02:29;21.10;94.50